London, Texas
Current Conditions -  °F | °C
As of 1:51 PM on Wednesday 26 Nov 2014 (Local Time) from KJCT Reporting Station
Clear Clear  
Wind Chill: 72°   Ceiling: Unl
Heat Index: 72°   Visibility: 10mi
Dew Point: 25°   Wind: 12mph
Humidity: 17%   Direction: 310°NW
Pressure: 30.17"   Gusts: 22mph
Location:  30.68°N, 99.58°W
Report Text: KJCT 261951Z AUTO 31010G19KT 10SM CLR 22/M04 A3017 RMK AO2 SLP199 T02221039
Loading
Personal Weather Stations






























Interactive Weather Map New forecast layout! Learn more

10-Day Weather Forecast

Advertisements
Track Severe Weather on mobile